Time;durP1;ratioP1;P1;durP2;ratioP2;P2;SDS_P1;SDS_P2;PMS_P1;PMS_P2;Temp;Humidity;BMP_temperature;BMP_pressure;BME280_temperature;BME280_humidity;BME280_pressure;Samples;Min_cycle;Max_cycle;Signal;HPM_P1;HPM_P2
2023/07/07 00:02:10;;;;;;;15.95;5.18;;;29.30;99.90;;;;;;5083754;28;20024;-55
2023/07/07 00:04:37;;;;;;;18.02;5.18;;;29.30;99.90;;;;;;5084064;28;20036;-56
2023/07/07 00:07:04;;;;;;;14.57;5.43;;;29.30;99.90;;;;;;5083718;28;20017;-56
2023/07/07 00:09:31;;;;;;;16.50;5.85;;;29.30;99.90;;;;;;5083913;28;20029;-54
2023/07/07 00:12:00;;;;;;;14.60;5.60;;;29.30;99.90;;;;;;5083648;28;20249;-56
2023/07/07 00:14:26;;;;;;;16.38;6.22;;;29.30;99.90;;;;;;5066250;28;20027;-53
2023/07/07 00:16:53;;;;;;;13.32;6.00;;;29.30;99.90;;;;;;5083553;28;20107;-58
2023/07/07 00:19:19;;;;;;;18.52;7.63;;;;;;;;;;5087178;28;20205;-56
2023/07/07 00:21:46;;;;;;;16.73;7.55;;;29.30;99.90;;;;;;5087750;28;20017;-54
2023/07/07 00:24:12;;;;;;;18.27;8.95;;;29.30;99.90;;;;;;5087810;28;20220;-55
2023/07/07 00:26:39;;;;;;;20.50;9.07;;;;;;;;;;5087166;28;20298;-53
2023/07/07 00:29:06;;;;;;;14.35;8.52;;;;;;;;;;5069794;28;20024;-55
2023/07/07 00:31:33;;;;;;;21.27;12.73;;;;;;;;;;5087333;28;20032;-54
2023/07/07 00:33:59;;;;;;;25.05;13.93;;;;;;;;;;5087401;28;20043;-54
2023/07/07 00:36:26;;;;;;;20.88;13.43;;;;;;;;;;5087201;28;20021;-56
2023/07/07 00:38:54;;;;;;;21.45;10.25;;;29.30;99.90;;;;;;5087462;28;20320;-52
2023/07/07 00:41:20;;;;;;;21.45;10.13;;;29.30;99.90;;;;;;5087031;28;20038;-55
2023/07/07 00:44:02;;;;;;;19.45;9.32;;;;;;;;;;5087390;28;20103;-59
2023/07/07 00:46:30;;;;;;;15.50;9.07;;;;;;;;;;5087118;28;20056;-54
2023/07/07 00:48:57;;;;;;;20.20;9.45;;;;;;;;;;5080261;28;20028;-52
2023/07/07 00:51:28;;;;;;;19.80;9.00;;;;;;;;;;5090811;28;20012;-62
2023/07/07 00:53:56;;;;;;;23.75;9.65;;;;;;;;;;5107227;28;20054;-56
2023/07/07 00:56:43;;;;;;;20.27;9.80;;;;;;;;;;5106951;28;20032;-57
2023/07/07 00:59:11;;;;;;;21.27;9.10;;;;;;;;;;5107152;28;20296;-55
2023/07/07 01:01:38;;;;;;;16.33;8.95;;;;;;;;;;5107182;28;20027;-60
2023/07/07 01:04:07;;;;;;;21.35;9.65;;;;;;;;;;5107338;28;20024;-57
2023/07/07 01:06:36;;;;;;;17.73;8.52;;;;;;;;;;5106858;28;20074;-54
2023/07/07 01:09:06;;;;;;;15.88;8.38;;;;;;;;;;5105118;28;20319;-55
2023/07/07 01:11:33;;;;;;;22.00;8.18;;;;;;;;;;5099686;28;20047;-58
2023/07/07 01:14:03;;;;;;;20.83;8.25;;;;;;;;;;5106875;28;20047;-56
2023/07/07 01:16:35;;;;;;;22.05;7.40;;;;;;;;;;5105504;28;20044;-57
2023/07/07 01:19:05;;;;;;;18.98;7.43;;;;;;;;;;5106848;28;20032;-57
2023/07/07 01:21:45;;;;;;;23.50;7.38;;;;;;;;;;5106741;28;20170;-55
2023/07/07 01:24:24;;;;;;;17.40;7.45;;;;;;;;;;5107086;28;20047;-56
2023/07/07 01:26:57;;;;;;;18.80;7.03;;;;;;;;;;5105597;28;20099;-55
2023/07/07 01:29:40;;;;;;;24.08;7.82;;;;;;;;;;5105502;28;20036;-54
2023/07/07 01:32:08;;;;;;;17.65;7.18;;;;;;;;;;5105495;28;20028;-57
2023/07/07 01:34:35;;;;;;;24.58;7.80;;;;;;;;;;5106914;28;20086;-55
2023/07/07 01:37:02;;;;;;;16.65;6.97;;;;;;;;;;5106325;28;20085;-59
2023/07/07 01:39:29;;;;;;;23.67;8.07;;;;;;;;;;5106872;28;20248;-54
2023/07/07 01:41:56;;;;;;;19.17;7.13;;;;;;;;;;5106560;28;20032;-55
2023/07/07 01:44:46;;;;;;;20.63;7.07;;;;;;;;;;5105103;28;20030;-55
2023/07/07 01:47:12;;;;;;;19.40;7.38;;;;;;;;;;5106294;28;20110;-56
2023/07/07 01:49:51;;;;;;;19.02;6.95;;;;;;;;;;5106307;28;20032;-54
2023/07/07 01:52:27;;;;;;;17.08;7.00;;;;;;;;;;5106213;28;20032;-54
2023/07/07 01:54:58;;;;;;;17.27;6.65;;;;;;;;;;5106305;28;20027;-54
2023/07/07 01:57:26;;;;;;;15.68;6.90;;;;;;;;;;5105993;28;20220;-54
2023/07/07 01:59:53;;;;;;;19.55;6.80;;;;;;;;;;5106427;28;20145;-53
2023/07/07 02:02:19;;;;;;;20.40;7.03;;;;;;;;;;5105819;28;20035;-54
2023/07/07 02:04:46;;;;;;;17.23;6.18;;;;;;;;;;5106279;28;20331;-55
2023/07/07 02:07:12;;;;;;;23.25;6.80;;;;;;;;;;5105990;28;20074;-58
2023/07/07 02:09:40;;;;;;;16.75;6.20;;;;;;;;;;5105999;28;20126;-56
2023/07/07 02:12:07;;;;;;;19.23;6.47;;;;;;;;;;5105792;28;20036;-57
2023/07/07 02:14:33;;;;;;;20.98;6.05;;;;;;;;;;5105887;28;20069;-54
2023/07/07 02:17:00;;;;;;;18.67;6.57;;;;;;;;;;5099257;28;20030;-61
2023/07/07 02:19:27;;;;;;;15.40;5.53;;;;;;;;;;5080083;28;20037;-59
2023/07/07 02:21:54;;;;;;;19.52;5.85;;;;;;;;;;5085452;28;20028;-57
2023/07/07 02:24:20;;;;;;;19.55;5.90;;;;;;;;;;5100391;28;20079;-61
2023/07/07 02:26:50;;;;;;;18.60;6.40;;;;;;;;;;5105700;28;20121;-63
2023/07/07 02:29:16;;;;;;;15.00;6.00;;;;;;;;;;5105803;28;20184;-63
2023/07/07 02:31:43;;;;;;;16.25;5.53;;;;;;;;;;5098327;28;20024;-59
2023/07/07 02:34:10;;;;;;;21.77;5.78;;;;;;;;;;5085263;28;20332;-58
2023/07/07 02:36:36;;;;;;;19.00;5.80;;;;;;;;;;5084059;28;20032;-58
2023/07/07 02:39:03;;;;;;;15.98;5.43;;;;;;;;;;5085076;28;20038;-61
2023/07/07 02:41:30;;;;;;;15.23;5.50;;;;;;;;;;5085845;28;20107;-59
2023/07/07 02:43:58;;;;;;;16.60;5.70;;;;;;;;;;5081779;28;20021;-58
2023/07/07 02:46:25;;;;;;;17.60;6.38;;;;;;;;;;5083231;28;20338;-60
2023/07/07 02:48:52;;;;;;;12.45;4.72;;;;;;;;;;5084929;28;20036;-58
2023/07/07 02:51:18;;;;;;;15.60;5.22;;;;;;;;;;5084809;28;20092;-60
2023/07/07 02:53:45;;;;;;;14.05;5.25;;;;;;;;;;5084774;28;20219;-59
2023/07/07 02:56:11;;;;;;;18.52;5.70;;;;;;;;;;5084615;28;20104;-59
2023/07/07 02:58:38;;;;;;;14.77;5.38;;;;;;;;;;5066726;28;20372;-60
2023/07/07 03:01:10;;;;;;;15.00;4.90;;;;;;;;;;5066898;28;20084;-58
2023/07/07 03:03:41;;;;;;;12.70;4.68;;;;;;;;;;5084621;28;20190;-62
2023/07/07 03:06:09;;;;;;;14.63;5.05;;;;;;;;;;5084559;28;20032;-64
2023/07/07 03:08:36;;;;;;;16.52;5.22;;;;;;;;;;5089205;28;20020;-60
2023/07/07 03:11:09;;;;;;;12.35;4.80;;;;;;;;;;5101360;28;20023;-59
2023/07/07 03:13:36;;;;;;;15.15;5.18;;;;;;;;;;5104740;28;20032;-60
2023/07/07 03:16:09;;;;;;;12.35;4.85;;;;;;;;;;5104460;28;20323;-58
2023/07/07 03:18:36;;;;;;;15.13;5.32;;;;;;;;;;5104962;28;20036;-59
2023/07/07 03:21:03;;;;;;;17.73;6.07;;;;;;;;;;5104850;28;20082;-58
2023/07/07 03:23:30;;;;;;;11.55;5.68;;;;;;;;;;5104512;28;20333;-64
2023/07/07 03:25:56;;;;;;;15.73;5.05;;;;;;;;;;5104837;28;20040;-59
2023/07/07 03:28:23;;;;;;;14.60;5.00;;;;;;;;;;5104640;28;20328;-57
2023/07/07 03:30:50;;;;;;;16.52;5.50;;;;;;;;;;5103638;28;20040;-62
2023/07/07 03:33:19;;;;;;;20.88;5.10;;;;;;;;;;5086433;28;20052;-59
2023/07/07 03:35:45;;;;;;;16.20;5.55;;;;;;;;;;5104371;28;20028;-63
2023/07/07 03:38:13;;;;;;;13.82;4.90;;;;;;;;;;5103943;28;20034;-63
2023/07/07 03:40:47;;;;;;;17.77;5.13;;;;;;;;;;5104220;28;20136;-60
2023/07/07 03:43:13;;;;;;;15.13;5.32;;;;;;;;;;5103994;28;20016;-64
2023/07/07 03:45:41;;;;;;;15.35;5.95;;;;;;;;;;5104136;28;20421;-59
2023/07/07 03:48:07;;;;;;;16.83;5.45;;;;;;;;;;5104173;28;20026;-60
2023/07/07 03:50:34;;;;;;;15.85;4.72;;;;;;;;;;5104576;28;20069;-59
2023/07/07 03:53:00;;;;;;;14.27;4.68;;;;;;;;;;5103247;28;20243;-62
2023/07/07 03:55:27;;;;;;;18.27;5.45;;;;;;;;;;5104532;28;20020;-63
2023/07/07 03:57:54;;;;;;;18.33;6.03;;;;;;;;;;5085980;28;20035;-61
2023/07/07 04:00:20;;;;;;;16.77;5.47;;;;;;;;;;5104291;28;20035;-63
2023/07/07 04:02:47;;;;;;;17.80;5.30;;;;;;;;;;5103091;28;20020;-58
2023/07/07 04:05:16;;;;;;;14.27;5.28;;;;;;;;;;5103953;28;20020;-60
2023/07/07 04:07:45;;;;;;;14.05;5.10;;;;;;;;;;5103816;28;20028;-60
2023/07/07 04:10:16;;;;;;;14.43;5.65;;;;;;;;;;5104260;28;20083;-62
2023/07/07 04:12:43;;;;;;;14.73;5.40;;;;;;;;;;5103796;28;20040;-60
2023/07/07 04:15:09;;;;;;;13.75;5.20;;;;;;;;;;5104218;28;20031;-65
2023/07/07 04:17:36;;;;;;;15.77;5.28;;;;;;;;;;5103736;28;20028;-59
2023/07/07 04:20:05;;;;;;;16.77;5.65;;;;;;;;;;5104250;28;20244;-58
2023/07/07 04:22:32;;;;;;;13.35;5.00;;;;;;;;;;5103839;28;20036;-57
2023/07/07 04:25:08;;;;;;;16.67;5.43;;;;;;;;;;5103931;28;20036;-59
2023/07/07 04:27:35;;;;;;;16.77;5.25;;;;;;;;;;5103634;28;20095;-58
2023/07/07 04:30:02;;;;;;;12.68;5.00;;;;;;;;;;5085861;28;20085;-59
2023/07/07 04:32:29;;;;;;;11.45;4.97;;;;;;;;;;5103804;28;20251;-66
2023/07/07 04:34:55;;;;;;;20.05;7.47;;;;;;;;;;5103889;28;20052;-60
2023/07/07 04:37:22;;;;;;;16.50;9.90;;;;;;;;;;5103575;28;20054;-64
2023/07/07 04:39:52;;;;;;;17.80;9.15;;;;;;;;;;5103670;28;20228;-63
2023/07/07 04:42:19;;;;;;;20.33;8.70;;;;;;;;;;5103420;28;20324;-65
2023/07/07 04:44:45;;;;;;;17.15;8.40;;;;;;;;;;5103867;28;20187;-59
2023/07/07 04:47:12;;;;;;;19.92;8.20;;;;;;;;;;5103620;28;20043;-59
2023/07/07 04:49:38;;;;;;;14.32;7.15;;;;;;;;;;5103717;28;20036;-60
2023/07/07 04:52:05;;;;;;;20.42;7.15;;;;;;;;;;5103592;28;20030;-64
2023/07/07 04:54:32;;;;;;;19.85;6.88;;;;;;;;;;5103751;28;20036;-61
2023/07/07 04:56:59;;;;;;;17.52;5.97;;;;;;;;;;5103287;28;20256;-62
2023/07/07 04:59:26;;;;;;;15.77;6.10;;;;;;;;;;5103703;28;20080;-58
2023/07/07 05:01:53;;;;;;;12.90;5.97;;;;;;;;;;5103445;28;20040;-58
2023/07/07 05:04:20;;;;;;;22.05;6.45;;;;;;;;;;5105271;28;20031;-61
2023/07/07 05:06:46;;;;;;;20.50;6.18;;;;;;;;;;5107133;28;20216;-61
2023/07/07 05:09:14;;;;;;;18.35;5.53;;;;;;;;;;5107226;28;20099;-58
2023/07/07 05:11:40;;;;;;;15.68;5.40;;;;;;;;;;5107091;28;20387;-63
2023/07/07 05:14:07;;;;;;;16.30;5.35;;;;;;;;;;5107099;28;20015;-63
2023/07/07 05:16:36;;;;;;;12.13;4.90;;;;;;;;;;5106699;28;20040;-62
2023/07/07 05:19:03;;;;;;;13.32;5.30;;;;;;;;;;5106760;28;20019;-60
2023/07/07 05:21:30;;;;;;;16.25;5.70;;;;;;;;;;5106777;28;20024;-62
2023/07/07 05:23:57;;;;;;;16.75;5.35;;;;;;;;;;5106844;28;20312;-60
2023/07/07 05:26:27;;;;;;;14.63;4.85;;;;;;;;;;5106430;28;20056;-59
2023/07/07 05:28:55;;;;;;;17.15;5.43;;;;;;;;;;5106698;28;20019;-59
2023/07/07 05:31:22;;;;;;;14.93;4.65;;;;;;;;;;5106607;28;20252;-63
2023/07/07 05:33:48;;;;;;;16.10;4.63;;;;;;;;;;5106494;28;20077;-63
2023/07/07 05:36:15;;;;;;;17.17;4.82;;;;;;;;;;5106400;28;20079;-59
2023/07/07 05:38:42;;;;;;;17.20;4.82;;;;;;;;;;5106461;28;20043;-58
2023/07/07 05:41:10;;;;;;;13.15;4.35;;;;;;;;;;5106297;28;20089;-59
2023/07/07 05:43:37;;;;;;;12.48;4.32;;;;;;;;;;5106353;28;20012;-64
2023/07/07 05:46:05;;;;;;;11.80;4.50;;;;;;;;;;5106393;28;20232;-61
2023/07/07 05:48:31;;;;;;;13.45;4.53;;;;;;;;;;5106126;28;20038;-60
2023/07/07 05:50:59;;;;;;;11.90;4.25;;;;;;;;;;5106400;28;20039;-60
2023/07/07 05:53:26;;;;;;;13.80;4.20;;;;;;;;;;5106156;28;20036;-62
2023/07/07 05:55:54;;;;;;;15.40;4.70;;;;;;;;;;5105995;28;20444;-64
2023/07/07 05:58:21;;;;;;;14.90;5.10;;;;;;;;;;5106059;28;20247;-62
2023/07/07 06:00:47;;;;;;;14.60;4.93;;;;;;;;;;5106254;28;20032;-58
2023/07/07 06:03:14;;;;;;;13.55;4.38;;;;;;;;;;5105789;28;20304;-60
2023/07/07 06:05:41;;;;;;;16.45;4.88;;;;;;;;;;5106082;28;20028;-61
2023/07/07 06:08:08;;;;;;;12.13;4.40;;;;;;;;;;5105927;28;20036;-61
2023/07/07 06:10:34;;;;;;;12.50;4.18;;;;;;;;;;5106246;28;20036;-62
2023/07/07 06:13:02;;;;;;;12.98;4.13;;;;;;;;;;5105928;28;20081;-61
2023/07/07 06:15:28;;;;;;;12.18;4.45;;;;;;;;;;5105451;28;20035;-62
2023/07/07 06:17:55;;;;;;;15.82;4.55;;;;;;;;;;5105576;28;20040;-65
2023/07/07 06:20:21;;;;;;;16.02;4.40;;;;;;;;;;5106023;28;20095;-63
2023/07/07 06:22:48;;;;;;;13.13;4.72;;;;;;;;;;5105698;28;20036;-61
2023/07/07 06:25:15;;;;;;;15.88;4.88;;;;;;;;;;5105376;28;20044;-59
2023/07/07 06:27:42;;;;;;;11.65;4.32;;;;;;;;;;5105393;28;20032;-58
2023/07/07 06:30:08;;;;;;;12.13;4.55;;;;;;;;;;5105880;28;20047;-61
2023/07/07 06:32:35;;;;;;;12.93;3.97;;;;;;;;;;5105368;28;20044;-58
2023/07/07 06:35:01;;;;;;;15.10;4.03;;;;;;;;;;5105554;28;20027;-62
2023/07/07 06:37:28;;;;;;;11.05;4.40;;;;;;;;;;5105242;28;20036;-59
2023/07/07 06:39:55;;;;;;;15.95;4.53;;;;;;;;;;5105681;28;20032;-59
2023/07/07 06:42:21;;;;;;;14.82;4.93;;;;;;;;;;5105093;28;20075;-61
2023/07/07 06:44:48;;;;;;;12.55;4.85;;;;;;;;;;5105191;28;20031;-61
2023/07/07 06:47:18;;;;;;;16.73;4.68;;;;;;;;;;5105175;28;20032;-58
2023/07/07 06:49:45;;;;;;;13.88;4.30;;;;;;;;;;5105259;28;20020;-59
2023/07/07 06:52:11;;;;;;;13.18;4.05;;;;;;;;;;5104789;28;20051;-58
2023/07/07 06:54:38;;;;;;;16.77;4.43;;;;;;;;;;5105330;28;20040;-62
2023/07/07 06:57:05;;;;;;;14.88;4.32;;;;;;;;;;5104735;28;20320;-62
2023/07/07 06:59:31;;;;;;;16.58;4.72;;;;;;;;;;5105094;28;20032;-62
2023/07/07 07:01:58;;;;;;;15.65;4.85;;;;;;;;;;5104902;28;20039;-62
2023/07/07 07:04:24;;;;;;;13.48;4.82;;;;;;;;;;5104894;28;20030;-58
2023/07/07 07:06:51;;;;;;;16.55;4.63;;;;;;;;;;5104961;28;20284;-57
2023/07/07 07:09:18;;;;;;;14.85;5.00;;;;;;;;;;5104886;28;20103;-60
2023/07/07 07:11:44;;;;;;;15.68;4.90;;;;;;;;;;5104563;28;20028;-57
2023/07/07 07:14:11;;;;;;;12.25;4.70;;;;;;;;;;5104863;28;20039;-62
2023/07/07 07:16:37;;;;;;;15.68;4.85;;;;;;;;;;5104442;28;20036;-64
2023/07/07 07:19:04;;;;;;;13.68;4.75;;;;;;;;;;5104531;28;20022;-64
2023/07/07 07:21:31;;;;;;;12.35;4.53;;;;;;;;;;5104494;28;20039;-63
2023/07/07 07:23:57;;;;;;;14.90;4.90;;;;;;;;;;5103911;28;20223;-60
2023/07/07 07:26:24;;;;;;;14.85;5.28;;;;;;;;;;5103555;28;20251;-58
2023/07/07 07:28:52;;;;;;;12.40;4.97;;;;;;;;;;5104581;28;20047;-63
2023/07/07 07:31:18;;;;;;;12.75;4.93;;;;;;;;;;5104392;28;20081;-59
2023/07/07 07:33:51;;;;;;;12.90;4.88;;;;;;;;;;5104287;28;20084;-64
2023/07/07 07:36:17;;;;;;;14.75;5.25;;;;;;;;;;5104230;28;20077;-62
2023/07/07 07:38:44;;;;;;;13.95;5.20;;;;;;;;;;5104304;28;20012;-59
2023/07/07 07:41:10;;;;;;;13.95;4.88;;;;;;;;;;5104179;28;20024;-62
2023/07/07 07:43:37;;;;;;;16.25;5.00;;;;;;;;;;5104208;28;20031;-59
2023/07/07 07:46:03;;;;;;;14.75;5.20;;;;;;;;;;5104099;28;20338;-60
2023/07/07 07:48:30;;;;;;;12.70;4.85;;;;;;;;;;5104062;28;20034;-63
2023/07/07 07:50:57;;;;;;;13.85;4.75;;;;;;;;;;5104129;28;20032;-61
2023/07/07 07:53:23;;;;;;;13.93;4.65;;;;;;;;;;5104082;28;20020;-60
2023/07/07 07:55:50;;;;;;;14.20;5.15;;;;;;;;;;5103370;28;20031;-60
2023/07/07 07:58:16;;;;;;;13.90;4.40;;;;;;;;;;5103927;28;20035;-61
2023/07/07 08:00:43;;;;;;;15.38;5.45;;;;;;;;;;5104071;28;20020;-64
2023/07/07 08:03:10;;;;;;;11.85;4.90;;;;;;;;;;5104041;28;20192;-62
2023/07/07 08:05:36;;;;;;;13.30;5.07;;;;;;;;;;5104387;28;20046;-64
2023/07/07 08:08:03;;;;;;;13.55;4.88;;;;;;;;;;5104035;28;20212;-63
2023/07/07 08:10:29;;;;;;;14.10;5.15;;;;;;;;;;5103914;28;20055;-63
2023/07/07 08:12:56;;;;;;;16.73;4.65;;;;;;;;;;5104008;28;20055;-60
2023/07/07 08:15:23;;;;;;;15.82;4.35;;;;;;;;;;5104230;28;20042;-64
2023/07/07 08:17:49;;;;;;;13.80;4.90;;;;;;;;;;5103909;28;20028;-64
2023/07/07 08:20:19;;;;;;;12.43;4.25;;;;;;;;;;5104182;28;20020;-62
2023/07/07 08:22:45;;;;;;;15.45;5.05;;;;;;;;;;5103709;28;20024;-63
2023/07/07 08:25:12;;;;;;;14.38;5.28;;;;;;;;;;5104027;28;20060;-59
2023/07/07 08:27:39;;;;;;;14.27;5.22;;;;;;;;;;5083349;28;20053;-63
2023/07/07 08:30:05;;;;;;;12.80;5.07;;;;;;;;;;5083841;28;20047;-64
2023/07/07 08:32:32;;;;;;;18.95;6.00;;;;;;;;;;5083565;28;20336;-59
2023/07/07 08:34:59;;;;;;;13.45;5.20;;;;;;;;;;5083708;28;20039;-60
2023/07/07 08:37:26;;;;;;;15.50;5.82;;;;;;;;;;5083372;28;20032;-61
2023/07/07 08:39:52;;;;;;;13.18;5.47;;;;;;;;;;5086429;28;20088;-63
2023/07/07 08:42:28;;;;;;;16.40;5.25;;;;;;;;;;5086989;28;20050;-62
2023/07/07 08:44:56;;;;;;;16.13;5.43;;;;;;;;;;5087435;28;20090;-59
2023/07/07 08:47:41;;;;;;;18.75;5.50;;;;;;;;;;5087049;28;20037;-61
2023/07/07 08:50:14;;;;;;;16.27;5.75;;;;;;;;;;5087523;28;20020;-61
2023/07/07 08:52:43;;;;;;;16.50;5.18;;;;;;;;;;5086818;28;20066;-62
2023/07/07 08:55:18;;;;;;;18.02;6.05;;;;;;;;;;5087388;28;20356;-66
2023/07/07 08:57:50;;;;;;;15.25;5.43;;;;;;;;;;5086920;28;20063;-59
2023/07/07 09:00:49;;;;;;;20.98;6.78;;;;;;;;;;5087165;28;20012;-62
2023/07/07 09:03:24;;;;;;;15.93;5.85;;;;;;;;;;5042377;28;20040;-60
2023/07/07 09:05:50;;;;;;;16.42;5.75;;;;;;;;;;5088233;28;20095;-63
2023/07/07 09:08:29;;;;;;;16.38;5.75;;;;;;;;;;5086593;28;20091;-62
2023/07/07 09:11:14;;;;;;;15.32;5.93;;;;;;;;;;5086708;28;20028;-65
2023/07/07 09:13:42;;;;;;;19.85;6.38;;;;;;;;;;5086764;28;20366;-61
2023/07/07 09:16:08;;;;;;;16.50;5.68;;;;;;;;;;5086665;28;20039;-59
2023/07/07 09:18:43;;;;;;;18.63;5.70;;;;;;;;;;5086513;28;20036;-59
2023/07/07 09:21:16;;;;;;;16.02;5.68;;;;;;;;;;5086425;28;20036;-58
2023/07/07 09:23:43;;;;;;;16.17;6.28;;;;;;;;;;5105740;28;20044;-62
2023/07/07 09:26:18;;;;;;;16.33;6.47;;;;;;;;;;5106539;28;20082;-62
2023/07/07 09:28:47;;;;;;;14.68;5.78;;;;;;;;;;5106673;28;20351;-60
2023/07/07 09:31:25;;;;;;;16.10;6.43;;;;;;;;;;5106524;28;20324;-59
2023/07/07 09:33:53;;;;;;;18.77;6.75;;;;;;;;;;5106685;28;20043;-66
2023/07/07 09:36:25;;;;;;;20.15;7.28;;;;;;;;;;5106483;28;20033;-63
2023/07/07 09:39:11;;;;;;;23.15;6.82;;;;;;;;;;5106592;28;20053;-64
2023/07/07 09:41:44;;;;;;;17.95;6.47;;;;;;;;;;5106332;28;20028;-59
2023/07/07 09:44:17;;;;;;;19.73;6.25;;;;;;;;;;5106608;28;20020;-62
2023/07/07 09:46:43;;;;;;;16.58;6.25;;;;;;;;;;5106362;28;20257;-59
2023/07/07 09:49:18;;;;;;;18.67;6.43;;;;;;;;;;5106423;28;20212;-61
2023/07/07 09:51:44;;;;;;;23.45;7.68;;;;;;;;;;5104950;28;20032;-60
2023/07/07 09:54:12;;;;;;;25.85;7.20;;;;;;;;;;5086339;28;20032;-59
2023/07/07 09:56:46;;;;;;;16.45;6.97;;;;;;;;;;5085828;28;20016;-59
2023/07/07 09:59:26;;;;;;;16.88;6.43;;;;;;;;;;5086104;28;20288;-60
2023/07/07 10:01:55;;;;;;;16.48;7.00;;;;;;;;;;5101484;28;20338;-65
2023/07/07 10:04:24;;;;;;;24.45;7.97;;;;;;;;;;5106071;28;20081;-64
2023/07/07 10:06:50;;;;;;;17.38;7.10;;;;;;;;;;5096018;28;20029;-65
2023/07/07 10:09:17;;;;;;;21.23;7.20;;;;;;;;;;5085814;28;20021;-64
2023/07/07 10:11:47;;;;;;;18.60;7.03;;;;;;;;;;5085489;28;20044;-65
2023/07/07 10:14:15;;;;;;;17.00;6.78;;;;;;;;;;5085855;28;20043;-63
2023/07/07 10:17:00;;;;;;;20.48;6.82;;;;;;;;;;5085334;28;20227;-60
2023/07/07 10:19:27;;;;;;;19.23;7.30;;;;;;;;;;5085697;28;20028;-63
2023/07/07 10:21:54;;;;;;;18.83;6.90;;;;;;;;;;5085372;28;20201;-65
2023/07/07 10:24:21;;;;;;;20.48;7.10;;;;;;;;;;5085277;28;20022;-60
2023/07/07 10:26:48;;;;;;;17.27;6.65;;;;;;;;;;5067451;28;20041;-64
2023/07/07 10:29:21;;;;;;;19.75;6.22;;;;;;;;;;5092672;28;20200;-61
2023/07/07 10:31:49;;;;;;;17.48;6.35;;;;;;;;;;5105209;28;20358;-60
2023/07/07 10:34:32;;;;;;;16.88;5.90;;;;;;;;;;5105669;28;20036;-62
2023/07/07 10:36:59;;;;;;;16.88;6.32;;;;;;;;;;5105328;28;20031;-64
2023/07/07 10:39:27;;;;;;;16.88;6.28;;;;;;;;;;5105517;28;20028;-64
2023/07/07 10:41:54;;;;;;;17.13;6.28;;;;;;;;;;5105309;28;20031;-60
2023/07/07 10:44:23;;;;;;;15.65;5.72;;;;;;;;;;5105273;28;20026;-62
2023/07/07 10:46:50;;;;;;;17.15;5.63;;;;;;;;;;5105003;28;20031;-60
2023/07/07 10:49:18;;;;;;;16.98;5.35;;;;;;;;;;5105332;28;20036;-65
2023/07/07 10:51:51;;;;;;;17.50;7.45;;;;;;;;;;5104897;28;20040;-64
2023/07/07 10:54:38;;;;;;;15.55;6.35;;;;;;;;;;5104976;28;20089;-60
2023/07/07 10:57:15;;;;;;;12.20;5.00;;;;;;;;;;5054310;28;20292;-63
2023/07/07 10:59:41;;;;;;;13.38;5.47;;;;;;;;;;5105278;28;20034;-58
2023/07/07 11:02:23;;;;;;;15.45;5.38;;;;;;;;;;5103875;28;20032;-58
2023/07/07 11:04:59;;;;;;;14.70;5.03;;;;;;;;;;5105070;28;20103;-58
2023/07/07 11:07:32;;;;;;;15.27;5.10;;;;;;;;;;5104529;28;20220;-57
2023/07/07 11:09:59;;;;;;;13.52;4.97;;;;;;;;;;5101930;28;20035;-61
2023/07/07 11:12:29;;;;;;;15.25;4.65;;;;;;;;;;5104698;28;20039;-58
2023/07/07 11:15:03;;;;;;;11.30;4.43;;;;;;;;;;5104749;28;20035;-65
2023/07/07 11:17:41;;;;;;;14.55;4.72;;;;;;;;;;5102574;28;20031;-66
2023/07/07 11:20:17;;;;;;;13.68;5.13;;;;;;;;;;5066476;28;20024;-60
2023/07/07 11:22:51;;;;;;;16.55;5.13;;;;;;;;;;5092916;28;20023;-63
2023/07/07 11:25:41;;;;;;;11.50;5.53;;;;;;;;;;5097730;28;20054;-62
2023/07/07 11:28:14;;;;;;;12.38;5.32;;;;;;;;;;5041720;28;20044;-57
2023/07/07 11:30:41;;;;;;;12.20;5.30;;;;;;;;;;5083979;28;20044;-58
2023/07/07 11:33:08;;;;;;;15.40;5.38;;;;;;;;;;5084028;28;20205;-58
2023/07/07 11:35:43;;;;;;;14.20;4.85;;;;;;;;;;5084612;28;20025;-58
2023/07/07 11:38:28;;;;;;;12.32;4.82;;;;;;;;;;5083798;28;20036;-62
2023/07/07 11:41:14;;;;;;;12.95;5.35;;;;;;;;;;5083422;28;20044;-62
2023/07/07 11:43:45;;;;;;;15.55;5.00;;;;;;;;;;5084082;28;20028;-61
2023/07/07 11:46:12;;;;;;;9.98;4.50;;;;;;;;;;5083980;28;20066;-60
2023/07/07 11:48:44;;;;;;;11.52;4.40;;;;;;;;;;5065968;28;20021;-61
2023/07/07 11:51:44;;;;;;;18.05;5.60;;;;;;;;;;5083957;28;20051;-58
2023/07/07 11:54:24;;;;;;;14.90;5.22;;;;;;;;;;5040273;28;20043;-64
2023/07/07 11:56:58;;;;;;;18.38;5.47;;;;;;;;;;5083653;28;20077;-62
2023/07/07 11:59:40;;;;;;;12.65;5.07;;;;;;;;;;5084055;28;20076;-66
2023/07/07 12:02:28;;;;;;;16.80;5.93;;;;;;;;;;5083434;28;20212;-59
2023/07/07 12:04:57;;;;;;;12.32;5.80;;;;;;;;;;5084056;28;20052;-56
2023/07/07 12:07:27;;;;;;;16.90;5.78;;;;;;;;;;5083599;28;20036;-54
2023/07/07 12:10:10;;;;;;;14.70;5.70;;;;;;;;;;5083845;28;20372;-62
2023/07/07 12:12:55;;;;;;;15.10;5.35;;;;;;;;;;5083611;28;20040;-56
2023/07/07 12:15:25;;;;;;;13.70;5.63;;;;;;;;;;5087712;28;20027;-60
2023/07/07 12:18:12;;;;;;;14.73;5.55;;;;;;;;;;5087717;28;20055;-57
2023/07/07 12:20:45;;;;;;;14.93;6.00;;;;;;;;;;5074054;28;20097;-60
2023/07/07 12:23:15;;;;;;;12.55;6.05;;;;;;;;;;5087405;28;20087;-63
2023/07/07 12:25:42;;;;;;;15.48;5.40;;;;;;;;;;5087529;28;20104;-55
2023/07/07 12:28:09;;;;;;;16.23;6.20;;;;;;;;;;5087660;28;20025;-55
2023/07/07 12:30:46;;;;;;;14.32;5.70;;;;;;;;;;5087807;28;20040;-54
2023/07/07 12:33:14;;;;;;;14.00;5.88;;;;;;;;;;5069629;28;20103;-61
2023/07/07 12:35:41;;;;;;;14.07;5.63;;;;;;;;;;5087378;28;20348;-59
2023/07/07 12:38:17;;;;;;;13.07;5.78;;;;;;;;;;5087142;28;20321;-57
2023/07/07 12:43:57;;;;;;;17.00;6.07;;;;;;;;;;5087321;28;20248;-57
2023/07/07 12:46:28;;;;;;;11.05;5.32;;;;;;;;;;5087018;28;20036;-54
2023/07/07 12:49:00;;;;;;;16.13;5.68;;;;;;;;;;5087328;28;20017;-54
2023/07/07 12:51:29;;;;;;;10.68;5.03;;;;;;;;;;5087098;28;20368;-53
2023/07/07 12:53:56;;;;;;;15.80;6.10;;;;;;;;;;5086990;28;20093;-54
2023/07/07 12:59:37;;;;;;;14.50;6.18;;;;;;;;;;5087157;28;20331;-53
2023/07/07 13:02:38;;;;;;;17.35;5.78;;;;;;;;;;5086798;28;20032;-55
2023/07/07 13:05:20;;;;;;;13.43;5.30;;;;;;;;;;5087292;28;20020;-54
2023/07/07 13:07:59;;;;;;;14.05;6.15;;;;;;;;;;5086798;28;20339;-55
2023/07/07 13:10:33;;;;;;;13.80;6.13;;;;;;;;;;5087171;28;20024;-54
2023/07/07 13:13:17;;;;;;;17.23;5.88;;;;;;;;;;5086824;28;20032;-54
2023/07/07 13:15:44;;;;;;;18.98;6.30;;;;;;;;;;5086629;28;20386;-54
2023/07/07 13:18:12;;;;;;;12.27;5.50;;;;;;;;;;5086538;28;20033;-55
2023/07/07 13:20:41;;;;;;;14.15;6.18;;;;;;;;;;5086504;28;20036;-54
2023/07/07 13:23:16;;;;;;;15.15;5.93;;;;;;;;;;5086550;28;20027;-52
2023/07/07 13:25:46;;;;;;;13.93;5.85;;;;;;;;;;5086183;28;20048;-54
2023/07/07 13:28:13;;;;;;;15.25;6.03;;;;;;;;;;5086498;28;20054;-54
2023/07/07 13:30:42;;;;;;;16.17;6.45;;;;;;;;;;5086269;28;20036;-57
2023/07/07 13:33:12;;;;;;;12.82;6.07;;;;;;;;;;5086312;28;20059;-54
2023/07/07 13:35:40;;;;;;;16.05;6.28;;;;;;;;;;5086327;28;20048;-53
2023/07/07 13:38:08;;;;;;;14.30;5.95;;;;;;;;;;5085998;28;20036;-56
2023/07/07 13:40:38;;;;;;;15.07;6.13;;;;;;;;;;5086647;28;20032;-53
2023/07/07 13:43:06;;;;;;;13.73;6.20;;;;;;;;;;5068252;28;20249;-55
2023/07/07 13:45:33;;;;;;;18.15;6.68;;;;;;;;;;5086001;28;20124;-54
2023/07/07 13:48:00;;;;;;;16.63;6.18;;;;;;;;;;5086117;28;20158;-55
2023/07/07 13:50:28;;;;;;;19.98;6.50;;;;;;;;;;5068460;28;20036;-55
2023/07/07 13:53:04;;;;;;;20.00;6.47;;;;;;;;;;5086095;28;20248;-56
2023/07/07 13:55:34;;;;;;;20.42;7.25;;;;;;;;;;5086362;28;20044;-55
2023/07/07 13:58:02;;;;;;;18.10;6.55;;;;;;;;;;5085624;28;20089;-55
2023/07/07 14:00:38;;;;;;;20.10;6.75;;;;;;;;;;5086294;28;20311;-54
2023/07/07 14:03:08;;;;;;;23.80;7.13;;;;;;;;;;5085756;28;20036;-54
2023/07/07 14:05:36;;;;;;;21.60;7.13;;;;;;;;;;5086227;28;20032;-52
2023/07/07 14:08:28;;;;;;;19.17;6.95;;;;;;;;;;5085760;28;20021;-58
2023/07/07 14:10:54;;;;;;;;;;;;;;;;;;5082856;28;20351;-53
2023/07/07 14:13:22;;;;;;;23.33;7.70;;;;;;;;;;5085565;28;19942;-55
2023/07/07 14:15:53;;;;;;;22.23;8.07;;;;;;;;;;5085318;28;20036;-56
2023/07/07 14:18:23;;;;;;;24.23;7.57;;;;;;;;;;5085385;28;20029;-55
2023/07/07 14:20:51;;;;;;;23.95;8.15;;;;;;;;;;5085497;28;20024;-57
2023/07/07 14:23:20;;;;;;;22.65;8.00;;;;;;;;;;5085123;28;20036;-55
2023/07/07 14:25:47;;;;;;;26.55;8.68;;;;;;;;;;5085261;28;20070;-54
2023/07/07 14:28:19;;;;;;;26.65;8.45;;;;;;;;;;5085164;28;20017;-54
2023/07/07 14:30:51;;;;;;;26.73;8.52;;;;;;;;;;5085232;28;20391;-55
2023/07/07 14:33:22;;;;;;;24.25;8.68;;;;;;;;;;5085130;28;20031;-56
2023/07/07 14:35:49;;;;;;;22.85;7.82;;;;;;;;;;5084768;28;20348;-53
2023/07/07 14:38:25;;;;;;;27.92;8.63;;;;;;;;;;5102122;28;20020;-47
2023/07/07 14:40:55;;;;;;;25.20;7.95;;;;;;;;;;5097504;28;20028;-46
2023/07/07 14:43:26;;;;;;;31.63;9.20;;;;;;;;;;5105017;28;20070;-53
2023/07/07 14:45:59;;;;;;;30.73;8.85;;;;;;;;;;5087087;28;20035;-54
2023/07/07 14:48:27;;;;;;;30.63;8.20;;;;;;;;;;5104155;28;20254;-56